Terminal Aerodrome Forecast
Issued by NWS Portland, OR

Home | Current Version | Previous Version | Text Only | Print | Product List | Glossary On
Versions: 1 2 3 4 5 6 7 8 9 10 11 12 13 14 15 16 17 18 19 20 21 22 23 24 25 26 27 28 29 30 31 32
143
FTUS46 KPQR 270542
TAFSLE
TAF
KSLE 270542Z 2706/2806 20008KT P6SM VCSH BKN022 OVC050
     FM271000 17006KT P6SM BKN015 OVC040
     FM271800 21010KT P6SM -SHRA BKN025 BKN050
     FM280000 23009KT P6SM -SHRA SCT025 BKN045=

USA.gov is the U.S. government's official web portal to all federal, state and local government web resources and services.